Overview Statistics Trail Chart Weather Telemetry Raw packets
 

This is the latest recevied weather packets stored in our database for station/object KC2GYU. If no packets are shown the sender has not sent any weather packets the latest 10 day(s).

<< 33 34 35 36 37 38 39 >>
Time Temp. Humidity Pressure Rain* Wind** Luminosity Snow
1777881158 8.89° C 75% 1016.8 hPa 0 mm - 0 W/m² -
1777880869 8.89° C 77% 1016.8 hPa 0 mm - 0 W/m² -
1777880553 8.33° C 78% 1016.8 hPa 0 mm - 0 W/m² -
1777880251 8.33° C 78% 1016.7 hPa 0 mm - 0 W/m² -
1777879950 8.33° C 79% 1017 hPa 0 mm - 0 W/m² -
1777879648 8.33° C 79% 1016.8 hPa 0 mm - 0 W/m² -
1777879343 8.33° C 79% 1016.7 hPa 0 mm - 0 W/m² -
1777879041 7.78° C 79% 1016.6 hPa 0 mm - 0 W/m² -
1777878738 7.78° C 80% 1016.6 hPa 0 mm - 0 W/m² -
1777878436 7.78° C 82% 1016.6 hPa 0 mm - 0 W/m² -
1777878131 7.22° C 82% 1016.5 hPa 0 mm - 0 W/m² -
1777877828 7.78° C 81% 1016.4 hPa 0 mm - 0 W/m² -
1777877525 7.22° C 81% 1016.6 hPa 0 mm - 0 W/m² -
1777877221 7.78° C 80% 1016.6 hPa 0 mm - 0 W/m² -
1777876919 7.78° C 80% 1016.5 hPa 0 mm - 0 W/m² -
1777876616 7.78° C 79% 1016.4 hPa 0 mm - 0 W/m² -
1777876314 8.33° C 78% 1016.5 hPa 0 mm - 0 W/m² -
1777876009 8.33° C 78% 1016.5 hPa 0 mm - 0 W/m² -
1777875705 8.33° C 78% 1016.4 hPa 0 mm - 0 W/m² -
1777875403 8.33° C 78% 1016.4 hPa 0 mm - 0 W/m² -
1777875099 8.33° C 78% 1016.5 hPa 0 mm - 0 W/m² -
1777874796 8.89° C 77% 1016.4 hPa 0 mm - 0 W/m² -
1777856909 7.78° C 76% 1015.1 hPa 0 mm - 0 W/m² -
1777856605 7.78° C 75% 1015.1 hPa 0 mm - 0 W/m² -
1777856301 8.33° C 75% 1015.2 hPa 0 mm - 0 W/m² -

* Rain latest hour (hover to see other rain measurements)
** Current wind speed in m/s (hover to see current wind gust speed)